createdAt,value
2019-04-05T00:00:41.656Z,142853.75
2019-04-05T00:05:37.573Z,142868.97
2019-04-05T00:10:33.632Z,142887.69
2019-04-05T00:15:29.543Z,142857.27
2019-04-05T00:20:25.460Z,142861.97
2019-04-05T00:25:21.447Z,142878.33
2019-04-05T00:30:17.361Z,142871.33
2019-04-05T00:35:14.493Z,142868.97
2019-04-05T00:40:10.919Z,142868.97
2019-04-05T00:45:07.643Z,142871.33
2019-04-05T00:50:05.560Z,142887.69
2019-04-05T00:55:01.577Z,142894.69
2019-04-05T00:59:57.500Z,142901.70
2019-04-05T01:04:53.434Z,142895.84
2019-04-05T01:09:49.447Z,142904.05
2019-04-05T01:14:45.368Z,142893.55
2019-04-05T01:19:43.611Z,142884.19
2019-04-05T01:24:40.205Z,142915.77
2019-04-05T01:29:36.188Z,142928.63
2019-04-05T01:34:32.165Z,142899.39
2019-04-05T01:39:28.122Z,142892.34
2019-04-05T01:44:24.391Z,142888.84
2019-04-05T01:49:20.314Z,142897.05
2019-04-05T01:54:19.653Z,142887.69
2019-04-05T01:59:15.642Z,142897.05
2019-04-05T02:04:11.597Z,142914.56
2019-04-05T02:09:09.918Z,142871.33
2019-04-05T02:14:05.932Z,142861.97
2019-04-05T02:19:01.995Z,142879.48
2019-04-05T02:24:11.500Z,142881.83
2019-04-05T02:29:07.615Z,142875.97
2019-04-05T02:34:03.638Z,142870.12
2019-04-05T02:38:59.641Z,142879.48
2019-04-05T02:43:57.270Z,142880.67
2019-04-05T02:48:53.792Z,142880.67
2019-04-05T02:53:53.765Z,142864.27
2019-04-05T02:58:50.196Z,142871.33
2019-04-05T03:03:46.216Z,142909.91
2019-04-05T03:08:42.473Z,142894.69
2019-04-05T03:13:42.197Z,142886.48
2019-04-05T03:18:42.019Z,142890.03
2019-04-05T03:23:39.551Z,142900.55
2019-04-05T03:28:36.872Z,142880.67
2019-04-05T03:33:33.396Z,142878.33
2019-04-05T03:38:29.603Z,142864.27
2019-04-05T03:43:25.625Z,142871.33
2019-04-05T03:48:21.546Z,142882.98
2019-04-05T03:53:17.670Z,142901.70
2019-04-05T03:58:13.587Z,142915.77
2019-04-05T04:03:09.612Z,142930.97
2019-04-05T04:08:05.576Z,142918.11
2019-04-05T04:13:01.600Z,142918.11
2019-04-05T04:17:57.552Z,142915.77
2019-04-05T04:22:53.569Z,142905.20
2019-04-05T04:27:49.496Z,142915.77
2019-04-05T04:32:45.592Z,142932.12
2019-04-05T04:37:41.796Z,142923.92
2019-04-05T04:42:37.806Z,142881.83
2019-04-05T04:47:34.226Z,142891.19
2019-04-05T04:52:31.489Z,142932.12
2019-04-05T04:57:27.825Z,142900.55
2019-04-05T05:02:23.844Z,142906.41
2019-04-05T05:07:19.862Z,142902.91
2019-04-05T05:12:15.903Z,142907.56
2019-04-05T05:17:12.476Z,142911.06
2019-04-05T05:22:08.748Z,142922.77
2019-04-05T05:27:05.168Z,142870.12
2019-04-05T05:32:01.942Z,142854.91
2019-04-05T05:36:57.883Z,142877.17
2019-04-05T05:41:53.801Z,142861.97
2019-04-05T05:46:49.732Z,142857.27
2019-04-05T05:51:45.624Z,142868.97
2019-04-05T05:56:41.576Z,142864.27
2019-04-05T06:01:37.501Z,142845.56
2019-04-05T06:06:33.521Z,142833.89
2019-04-05T06:11:29.537Z,142840.91
2019-04-05T06:16:25.459Z,142844.41
2019-04-05T06:21:21.854Z,142866.62
2019-04-05T06:26:17.833Z,142880.67
2019-04-05T06:31:13.831Z,142859.63
2019-04-05T06:36:09.749Z,142864.27
2019-04-05T06:41:05.770Z,142881.83
2019-04-05T06:46:02.105Z,142875.97
2019-04-05T06:50:58.063Z,142858.47
2019-04-05T06:55:53.992Z,142861.97
2019-04-05T07:00:56.847Z,142866.62
2019-04-05T07:05:47.832Z,142899.39
2019-04-05T07:10:45.375Z,142904.05
2019-04-05T07:15:41.375Z,142898.19
2019-04-05T07:20:37.287Z,142959.06
2019-04-05T07:25:33.258Z,142963.72
2019-04-05T07:30:29.199Z,142968.41
2019-04-05T07:35:33.411Z,142936.83
2019-04-05T07:40:23.635Z,142939.14
2019-04-05T07:45:19.743Z,142941.48
2019-04-05T07:50:15.764Z,142885.34
2019-04-05T07:55:12.263Z,142915.77
2019-04-05T08:00:12.088Z,142884.19
2019-04-05T08:05:08.123Z,142868.97
2019-04-05T08:10:07.749Z,142886.48
2019-04-05T08:15:04.670Z,142927.47
2019-04-05T08:20:00.590Z,142995.30
2019-04-05T08:24:56.515Z,142989.44
2019-04-05T08:29:52.473Z,142995.30
2019-04-05T08:34:48.494Z,143023.39
2019-04-05T08:39:46.624Z,143009.38
2019-04-05T08:44:44.582Z,143005.86
2019-04-05T08:49:44.971Z,143015.22
2019-04-05T08:54:41.704Z,143002.36
2019-04-05T08:59:41.914Z,142981.28
2019-04-05T09:04:38.852Z,143060.84
2019-04-05T09:09:34.867Z,143049.13
2019-04-05T09:14:32.714Z,143018.72
2019-04-05T09:19:34.415Z,143033.94
2019-04-05T09:24:31.267Z,143031.59
2019-04-05T09:29:27.910Z,143039.77
2019-04-05T09:34:25.292Z,143107.66
2019-04-05T09:39:22.082Z,143121.73
2019-04-05T09:44:18.134Z,143091.28
2019-04-05T09:49:14.076Z,143100.66
2019-04-05T09:54:21.374Z,143093.64
2019-04-05T09:59:17.397Z,143121.73
2019-04-05T10:04:13.419Z,143104.16
2019-04-05T10:09:09.340Z,143065.55
2019-04-05T10:14:05.261Z,143070.20
2019-04-05T10:19:01.302Z,143067.84
2019-04-05T10:23:57.222Z,143088.94
2019-04-05T10:28:53.187Z,143119.37
2019-04-05T10:33:49.131Z,143091.28
2019-04-05T10:38:45.048Z,143086.58
2019-04-05T10:43:40.964Z,143135.77
2019-04-05T10:48:36.886Z,143111.17
2019-04-05T10:53:32.800Z,143140.47
2019-04-05T10:58:28.785Z,143122.87
2019-04-05T11:03:24.707Z,143189.61
2019-04-05T11:08:20.619Z,143142.78
2019-04-05T11:13:16.598Z,143135.77
2019-04-05T11:18:12.520Z,143139.27
2019-04-05T11:23:08.439Z,143154.50
2019-04-05T11:28:04.404Z,143179.09
2019-04-05T11:33:00.463Z,143146.33
2019-04-05T11:37:56.482Z,143184.94
2019-04-05T11:42:52.807Z,143161.50
2019-04-05T11:47:49.141Z,143168.56
2019-04-05T11:52:45.059Z,143153.34
2019-04-05T11:57:41.918Z,143234.14
2019-04-05T12:02:39.912Z,143275.13
2019-04-05T12:07:35.831Z,143208.34
2019-04-05T12:12:31.750Z,143147.47
2019-04-05T12:17:27.695Z,143181.44
2019-04-05T12:22:23.633Z,143156.84
2019-04-05T12:27:20.844Z,143198.98
2019-04-05T12:32:18.947Z,143142.78
2019-04-05T12:37:14.863Z,143177.94
2019-04-05T12:42:12.153Z,143225.94
2019-04-05T12:47:08.852Z,143170.88
2019-04-05T12:52:05.104Z,143206.03
2019-04-05T12:57:01.021Z,143228.28
2019-04-05T13:01:59.493Z,143173.22
2019-04-05T13:06:54.806Z,143222.42
2019-04-05T13:11:50.803Z,143248.17
2019-04-05T13:16:49.377Z,143276.28
2019-04-05T13:21:44.624Z,143291.52
2019-04-05T13:26:42.053Z,143241.16
2019-04-05T13:31:38.466Z,143285.66
2019-04-05T13:36:34.369Z,143266.91
2019-04-05T13:41:32.265Z,143236.45
2019-04-05T13:46:28.144Z,143236.45
2019-04-05T13:51:28.271Z,143268.08
2019-04-05T13:56:21.971Z,143259.91
2019-04-05T14:01:18.510Z,143238.81
2019-04-05T14:06:15.853Z,143210.70
2019-04-05T14:11:11.822Z,143216.56
2019-04-05T14:16:07.805Z,143193.11
2019-04-05T14:21:03.774Z,143189.61
2019-04-05T14:26:00.400Z,143236.45
2019-04-05T14:30:56.371Z,143239.97
2019-04-05T14:35:52.526Z,143257.55
2019-04-05T14:40:50.186Z,143266.91
2019-04-05T14:45:46.098Z,143249.33
2019-04-05T14:50:42.276Z,143234.14
2019-04-05T14:55:38.741Z,143198.98
2019-04-05T15:00:34.790Z,143206.03
2019-04-05T15:05:30.806Z,143194.31
2019-04-05T15:10:26.831Z,143220.06
2019-04-05T15:15:22.854Z,143304.45
2019-04-05T15:20:19.173Z,143295.03
2019-04-05T15:25:21.268Z,143344.30
2019-04-05T15:30:15.413Z,143337.22
2019-04-05T15:35:11.530Z,143408.72
2019-04-05T15:40:08.950Z,143420.44
2019-04-05T15:45:08.360Z,143340.78
2019-04-05T15:50:07.341Z,143311.47
2019-04-05T15:55:07.578Z,143296.19
2019-04-05T16:00:09.233Z,143295.03
2019-04-05T16:05:14.690Z,143257.55
2019-04-05T16:10:22.151Z,143299.73
2019-04-05T16:15:21.179Z,143263.41
2019-04-05T16:20:18.698Z,143304.45
2019-04-05T16:25:15.492Z,143317.33
2019-04-05T16:35:28.265Z,143323.19
2019-04-05T16:40:27.099Z,143344.30
2019-04-05T16:45:28.178Z,143323.19
2019-04-05T16:50:26.448Z,143389.97
2019-04-05T16:55:27.608Z,143317.33
2019-04-05T17:00:45.280Z,143299.73
2019-04-05T17:05:42.633Z,143290.38
2019-04-05T17:10:44.146Z,143320.84
2019-04-05T17:20:51.377Z,143337.22
2019-04-05T17:25:49.410Z,143326.70
2019-04-05T17:30:46.487Z,143318.53
2019-04-05T17:35:42.498Z,143318.53
2019-04-05T17:40:38.461Z,143259.91
2019-04-05T17:45:35.213Z,143303.30
2019-04-05T17:50:32.431Z,143333.72
2019-04-05T17:55:31.565Z,143281.00
2019-04-05T18:00:27.489Z,143272.78
2019-04-05T18:05:25.613Z,143311.47
2019-04-05T18:10:21.638Z,143317.33
2019-04-05T18:15:17.561Z,143345.45
2019-04-05T18:20:13.591Z,143302.09
2019-04-05T18:25:09.667Z,143331.41
2019-04-05T18:30:06.592Z,143319.69
2019-04-05T18:35:04.218Z,143329.06
2019-04-05T18:40:00.140Z,143310.31
2019-04-05T18:44:56.065Z,143323.19
2019-04-05T18:50:02.401Z,143344.30
2019-04-05T18:54:50.501Z,143332.56
2019-04-05T18:59:46.481Z,143334.92
2019-04-05T19:04:42.402Z,143343.09
2019-04-05T19:09:38.320Z,143311.47
2019-04-05T19:14:34.245Z,143313.81
2019-04-05T19:19:30.275Z,143281.00
2019-04-05T19:24:26.174Z,143300.94
2019-04-05T19:29:22.387Z,143300.94
2019-04-05T19:49:14.531Z,143292.67
2019-04-05T19:54:10.601Z,143344.30
2019-04-05T19:59:06.525Z,143365.34
2019-04-05T20:04:02.482Z,143333.72
2019-04-05T20:08:58.596Z,143357.17
2019-04-05T20:13:54.525Z,143347.80
2019-04-05T20:18:50.447Z,143360.69
2019-04-05T20:23:47.661Z,143386.45
2019-04-05T20:28:43.989Z,143370.06
2019-04-05T20:33:39.937Z,143306.80
2019-04-05T20:38:35.930Z,143269.27
2019-04-05T20:43:31.865Z,143306.80
2019-04-05T20:48:27.793Z,143290.38
2019-04-05T20:53:23.779Z,143311.47
2019-04-05T20:58:19.830Z,143375.92
2019-04-05T21:03:16.177Z,143360.69
2019-04-05T21:08:12.069Z,143289.17
2019-04-05T21:13:07.994Z,143286.81
2019-04-05T21:18:04.011Z,143255.19
2019-04-05T21:22:59.935Z,143276.28
2019-04-05T21:27:55.911Z,143264.56
2019-04-05T21:32:51.891Z,143285.66
2019-04-05T21:37:47.806Z,143259.91
2019-04-05T21:42:43.758Z,143292.67
2019-04-05T21:47:39.734Z,143286.81
2019-04-05T21:52:35.651Z,143307.95
2019-04-05T21:57:31.573Z,143325.55
2019-04-05T22:02:27.590Z,143307.95
2019-04-05T22:07:23.620Z,143266.91
2019-04-05T22:12:20.884Z,143307.95
2019-04-05T22:17:16.809Z,143331.41
2019-04-05T22:22:12.761Z,143312.67
2019-04-05T22:27:08.671Z,143290.38
2019-04-05T22:32:04.581Z,143278.64
2019-04-05T22:37:00.498Z,143292.67
2019-04-05T22:41:56.411Z,143297.38
2019-04-05T22:46:52.433Z,143286.81
2019-04-05T22:51:48.349Z,143285.66
2019-04-05T22:56:44.272Z,143269.27
2019-04-05T23:01:40.212Z,143293.88
2019-04-05T23:06:36.166Z,143292.67
2019-04-05T23:11:32.129Z,143341.94
2019-04-05T23:16:28.047Z,143304.45
2019-04-05T23:21:23.967Z,143302.09
2019-04-05T23:26:19.890Z,143302.09
2019-04-05T23:31:15.799Z,143323.19
2019-04-05T23:36:11.801Z,143359.53
2019-04-05T23:41:07.749Z,143355.97
2019-04-05T23:46:03.766Z,143360.69
2019-04-05T23:50:59.696Z,143352.47
2019-04-05T23:55:55.615Z,143360.69
